Time;durP1;ratioP1;P1;durP2;ratioP2;P2;SDS_P1;SDS_P2;PMS_P1;PMS_P2;Temp;Humidity;BMP_temperature;BMP_pressure;BME280_temperature;BME280_humidity;BME280_pressure;Samples;Min_cycle;Max_cycle;Signal;HPM_P1;HPM_P2
2021/03/24 00:01:26;;;;;;;;;8.00;8.00;;;;;;;;12056560;29;8896;-54
2021/03/24 00:07:27;;;;;;;;;9.00;7.00;;;;;;;;12057332;29;8884;-56
2021/03/24 00:13:30;;;;;;;;;6.00;6.00;;;;;;;;12058294;29;8881;-53
2021/03/24 00:19:31;;;;;;;;;9.00;7.00;;;;;;;;12057675;29;8874;-53
2021/03/24 00:25:39;;;;;;;;;4.50;4.50;;;;;;;;12012165;29;9685;-53
2021/03/24 00:31:40;;;;;;;;;0.50;0.50;;;;;;;;12031484;29;8880;-53
2021/03/24 00:37:42;;;;;;;;;7.00;7.00;;;;;;;;12055987;29;8850;-52
2021/03/24 00:43:44;;;;;;;;;6.25;6.25;;;;;;;;12056179;29;9508;-52
2021/03/24 00:49:45;;;;;;;;;6.00;6.00;;;;;;;;12055269;29;9087;-54
2021/03/24 00:56:05;;;;;;;;;3.00;3.00;;;;;;;;12008867;29;8884;-52
2021/03/24 01:02:06;;;;;;;;;7.00;7.00;;;;;;;;12009478;29;8884;-52
2021/03/24 01:08:14;;;;;;;;;5.00;5.00;;;;;;;;12011546;29;9694;-55
2021/03/24 01:14:16;;;;;;;;;6.00;3.50;;;;;;;;12009669;29;8876;-52
2021/03/24 01:20:23;;;;;;;;;6.75;6.00;;;;;;;;12009151;29;8960;-53
2021/03/24 01:26:27;;;;;;;;;6.75;6.75;;;;;;;;12008533;29;8861;-51
2021/03/24 01:32:29;;;;;;;;;4.00;4.00;;;;;;;;12009029;29;9629;-52
2021/03/24 01:38:31;;;;;;;;;6.50;5.00;;;;;;;;12009209;29;9007;-54
2021/03/24 01:44:32;;;;;;;;;4.00;3.00;;;;;;;;12007873;29;8990;-52
2021/03/24 01:50:39;;;;;;;;;6.00;6.00;;;;;;;;12007842;29;8903;-53
2021/03/24 01:56:56;;;;;;;;;6.00;4.00;;;;;;;;12007295;29;8883;-53
2021/03/24 02:02:57;;;;;;;;;4.00;4.00;;;;;;;;12006748;29;8900;-54
2021/03/24 02:09:12;;;;;;;;;6.00;3.75;;;;;;;;12007135;29;8886;-53
2021/03/24 02:15:21;;;;;;;;;4.00;4.00;;;;;;;;12007750;29;8899;-50
2021/03/24 02:21:34;;;;;;;;;6.00;5.00;;;;;;;;12007083;29;8856;-51
2021/03/24 02:27:38;;;;;;;;;7.00;6.25;;;;;;;;12007500;29;9606;-53
2021/03/24 02:33:43;;;;;;;;;6.00;6.00;;;;;;;;12006706;29;8926;-53
2021/03/24 02:39:46;;;;;;;;;9.00;5.00;;;;;;;;12006147;29;8887;-51
2021/03/24 02:45:49;;;;;;;;;3.25;3.00;;;;;;;;12006750;29;8884;-52
2021/03/24 02:51:53;;;;;;;;;5.75;5.75;;;;;;;;12006628;29;8903;-53
2021/03/24 02:57:55;;;;;;;;;4.00;4.00;;;;;;;;12006527;29;8894;-52
2021/03/24 03:04:05;;;;;;;;;6.00;4.00;;;;;;;;12006568;29;8884;-53
2021/03/24 03:10:11;;;;;;;;;6.50;6.50;;;;;;;;12011331;29;9039;-52
2021/03/24 03:16:34;;;;;;;;;4.00;4.00;;;;;;;;12014445;29;8868;-54
2021/03/24 03:22:59;;;;;;;;;4.00;1.50;;;;;;;;12014340;29;8883;-51
2021/03/24 03:29:09;;;;;;;;;3.75;3.75;;;;;;;;12013853;29;9002;-51
2021/03/24 03:35:16;;;;;;;;;4.00;4.00;;;;;;;;12014217;29;8990;-52
2021/03/24 03:41:19;;;;;;;;;4.00;4.00;;;;;;;;12013859;29;8986;-53
2021/03/24 03:47:21;;;;;;;;;7.00;7.00;;;;;;;;12014216;29;9002;-53
2021/03/24 03:53:38;;;;;;;;;4.50;4.00;;;;;;;;12013321;29;8868;-54
2021/03/24 03:59:55;;;;;;;;;6.00;6.00;;;;;;;;12012797;29;8887;-55
2021/03/24 04:06:04;;;;;;;;;6.00;6.00;;;;;;;;12453385;24;9020;-51
2021/03/24 04:12:12;;;;;;;;;4.00;4.00;;;;;;;;12014832;29;8879;-51
2021/03/24 04:18:18;;;;;;;;;4.50;4.00;;;;;;;;12013222;29;8860;-50
2021/03/24 04:24:24;;;;;;;;;4.00;3.50;;;;;;;;12011621;29;8902;-48
2021/03/24 04:30:37;;;;;;;;;4.50;3.50;;;;;;;;12011708;29;8871;-49
2021/03/24 04:36:42;;;;;;;;;10.50;7.50;;;;;;;;12012444;29;8859;-52
2021/03/24 04:42:52;;;;;;;;;6.50;6.50;;;;;;;;12012550;29;8944;-51
2021/03/24 04:48:59;;;;;;;;;7.50;7.50;;;;;;;;12011460;29;8986;-51
2021/03/24 04:55:17;;;;;;;;;13.00;7.50;;;;;;;;12012359;29;8859;-52
2021/03/24 05:01:40;;;;;;;;;6.25;6.25;;;;;;;;12024106;29;8988;-53
2021/03/24 05:08:20;;;;;;;;;9.25;6.00;;;;;;;;12029614;29;8864;-51
2021/03/24 05:14:33;;;;;;;;;9.50;9.00;;;;;;;;12000094;29;8986;-53
2021/03/24 05:20:52;;;;;;;;;7.00;7.00;;;;;;;;12030610;29;9007;-53
2021/03/24 05:27:10;;;;;;;;;9.50;7.50;;;;;;;;12020263;29;8954;-53
2021/03/24 05:33:15;;;;;;;;;9.00;6.00;;;;;;;;12009562;29;9768;-54
2021/03/24 05:39:35;;;;;;;;;10.00;8.00;;;;;;;;12009351;29;8966;-52
2021/03/24 05:45:48;;;;;;;;;4.00;4.00;;;;;;;;12009048;29;8970;-54
2021/03/24 05:52:02;;;;;;;;;5.50;5.50;;;;;;;;12010042;29;8856;-52
2021/03/24 05:58:21;;;;;;;;;7.00;7.00;;;;;;;;12008268;29;8852;-50
2021/03/24 06:04:46;;;;;;;;;4.00;4.00;;;;;;;;12035373;29;8936;-54
2021/03/24 06:11:46;;;;;;;;;5.75;5.75;;;;;;;;12053292;29;9674;-53
2021/03/24 06:18:09;;;;;;;;;4.00;4.00;;;;;;;;12023493;29;9038;-54
2021/03/24 06:24:11;;;;;;;;;7.00;7.00;;;;;;;;12006856;29;8883;-52
2021/03/24 06:30:36;;;;;;;;;5.50;5.25;;;;;;;;12009388;29;8895;-53
2021/03/24 06:36:40;;;;;;;;;4.00;4.00;;;;;;;;12007442;29;8872;-54
2021/03/24 06:42:52;;;;;;;;;7.00;4.00;;;;;;;;12010028;29;8880;-52
2021/03/24 06:49:05;;;;;;;;;6.00;6.00;;;;;;;;12016488;29;8855;-54
2021/03/24 06:55:31;;;;;;;;;1.75;1.25;;;;;;;;12015965;29;8902;-56
2021/03/24 07:02:01;;;;;;;;;7.50;3.75;;;;;;;;12016374;29;8871;-52
2021/03/24 07:08:17;;;;;;;;;7.50;5.25;;;;;;;;12016795;29;8882;-55
2021/03/24 07:14:19;;;;;;;;;3.75;2.75;;;;;;;;12015263;29;8933;-54
2021/03/24 07:21:04;;;;;;;;;1.25;1.25;;;;;;;;12019848;29;8860;-54
2021/03/24 07:27:20;;;;;;;;;4.00;4.00;;;;;;;;12015518;29;8864;-52
2021/03/24 07:33:24;;;;;;;;;3.25;1.50;;;;;;;;12013692;29;8863;-54
2021/03/24 07:39:43;;;;;;;;;2.25;2.25;;;;;;;;12015559;29;8888;-52
2021/03/24 07:45:44;;;;;;;;;4.75;4.75;;;;;;;;12012833;29;8860;-53
2021/03/24 07:52:21;;;;;;;;;4.50;1.75;;;;;;;;12015366;29;8890;-52
2021/03/24 07:58:40;;;;;;;;;1.00;1.00;;;;;;;;11994589;29;8880;-54
2021/03/24 08:04:44;;;;;;;;;2.50;2.50;;;;;;;;12013740;29;8903;-52
2021/03/24 08:11:28;;;;;;;;;4.75;1.75;;;;;;;;12012598;29;8864;-55
2021/03/24 08:17:55;;;;;;;;;4.50;4.00;;;;;;;;12031828;29;8867;-51
2021/03/24 08:24:03;;;;;;;;;2.00;2.00;;;;;;;;12011690;29;8895;-51
2021/03/24 08:30:25;;;;;;;;;4.00;4.00;;;;;;;;12038790;29;8865;-54
2021/03/24 08:36:55;;;;;;;;;4.50;4.50;;;;;;;;12057076;29;8877;-54
2021/03/24 08:43:18;;;;;;;;;7.75;7.75;;;;;;;;12057037;29;8920;-49
2021/03/24 08:49:23;;;;;;;;;4.75;4.75;;;;;;;;12056762;29;8857;-52
2021/03/24 08:55:52;;;;;;;;;5.00;5.00;;;;;;;;12055785;29;8853;-54
2021/03/24 09:02:49;;;;;;;;;7.00;7.00;;;;;;;;12056092;29;8869;-53
2021/03/24 09:09:00;;;;;;;;;9.00;8.00;;;;;;;;12055189;29;8856;-54
2021/03/24 09:15:07;;;;;;;;;9.00;5.75;;;;;;;;12055710;29;8881;-52
2021/03/24 09:21:26;;;;;;;;;5.25;4.25;;;;;;;;12021815;29;8875;-52
2021/03/24 09:27:49;;;;;;;;;10.00;8.50;;;;;;;;12010620;29;8879;-53
2021/03/24 09:33:54;;;;;;;;;10.50;9.75;;;;;;;;12008543;29;8890;-55
2021/03/24 09:40:02;;;;;;;;;9.25;9.00;;;;;;;;12010675;29;8866;-50
2021/03/24 09:46:30;;;;;;;;;5.50;5.50;;;;;;;;12008660;29;8968;-49
2021/03/24 09:52:41;;;;;;;;;9.00;9.00;;;;;;;;12008019;29;8994;-50
2021/03/24 09:59:01;;;;;;;;;12.50;10.75;;;;;;;;12008602;29;8903;-55
2021/03/24 10:05:13;;;;;;;;;9.25;8.50;;;;;;;;12007253;29;8990;-52
2021/03/24 10:11:24;;;;;;;;;17.00;13.00;;;;;;;;12007120;29;8867;-53
2021/03/24 10:17:37;;;;;;;;;19.50;17.50;;;;;;;;12017359;29;8872;-54
2021/03/24 10:23:45;;;;;;;;;21.00;20.75;;;;;;;;12009007;29;8983;-53
2021/03/24 10:29:59;;;;;;;;;14.25;13.25;;;;;;;;12007484;29;9010;-53
2021/03/24 10:36:05;;;;;;;;;9.75;9.75;;;;;;;;12008169;29;8875;-53
2021/03/24 10:42:25;;;;;;;;;10.50;10.50;;;;;;;;12006783;29;8888;-53
2021/03/24 10:48:32;;;;;;;;;12.50;10.00;;;;;;;;12006972;29;8983;-55
2021/03/24 10:54:37;;;;;;;;;10.00;10.00;;;;;;;;12007045;29;8887;-55
2021/03/24 11:00:50;;;;;;;;;12.00;10.25;;;;;;;;12032275;29;8854;-57
2021/03/24 11:07:03;;;;;;;;;8.75;8.00;;;;;;;;12052599;29;8916;-53
2021/03/24 11:13:34;;;;;;;;;9.75;9.25;;;;;;;;12050771;29;8857;-55
2021/03/24 11:19:43;;;;;;;;;15.00;9.50;;;;;;;;12033643;29;8860;-56
2021/03/24 11:25:57;;;;;;;;;7.50;6.00;;;;;;;;12005697;29;8860;-52
2021/03/24 11:31:58;;;;;;;;;6.50;6.50;;;;;;;;12012295;29;8880;-54
2021/03/24 11:37:59;;;;;;;;;8.50;6.25;;;;;;;;12014622;29;8872;-53
2021/03/24 11:44:03;;;;;;;;;11.75;8.75;;;;;;;;12014028;29;8884;-53
2021/03/24 11:50:23;;;;;;;;;3.50;3.50;;;;;;;;12015012;29;8852;-55
2021/03/24 11:56:51;;;;;;;;;8.50;7.25;;;;;;;;12014701;29;9637;-54
2021/03/24 12:03:16;;;;;;;;;7.00;7.00;;;;;;;;12013786;29;8896;-54
2021/03/24 12:09:22;;;;;;;;;7.75;6.50;;;;;;;;12012713;29;9035;-58
2021/03/24 12:15:26;;;;;;;;;9.25;9.00;;;;;;;;12014744;29;8848;-56
2021/03/24 12:21:33;;;;;;;;;8.00;6.50;;;;;;;;12026552;29;8896;-56
2021/03/24 12:27:42;;;;;;;;;9.75;9.75;;;;;;;;12012668;29;8860;-53
2021/03/24 12:34:01;;;;;;;;;13.50;12.25;;;;;;;;12013882;29;9696;-57
2021/03/24 12:40:18;;;;;;;;;12.00;10.50;;;;;;;;12011329;29;8864;-56
2021/03/24 12:46:21;;;;;;;;;12.25;10.50;;;;;;;;12013460;29;8896;-55
2021/03/24 12:52:45;;;;;;;;;14.75;13.50;;;;;;;;12011190;29;8852;-55
2021/03/24 12:58:50;;;;;;;;;16.25;14.25;;;;;;;;12040416;29;8872;-56
2021/03/24 13:05:24;;;;;;;;;8.25;8.25;;;;;;;;12036664;29;8879;-55
2021/03/24 13:11:45;;;;;;;;;12.00;12.00;;;;;;;;12040562;29;8972;-54
2021/03/24 13:17:56;;;;;;;;;11.00;10.00;;;;;;;;12054412;29;9604;-55
2021/03/24 13:24:35;;;;;;;;;11.75;11.00;;;;;;;;12009704;29;8892;-55
2021/03/24 13:30:46;;;;;;;;;11.00;11.00;;;;;;;;12009628;29;8880;-55
2021/03/24 13:36:53;;;;;;;;;11.00;11.00;;;;;;;;12009103;29;8884;-56
2021/03/24 13:43:01;;;;;;;;;10.00;10.00;;;;;;;;12010149;29;8876;-51
2021/03/24 13:49:42;;;;;;;;;13.75;12.50;;;;;;;;12008491;29;8878;-56
2021/03/24 13:56:17;;;;;;;;;14.50;13.00;;;;;;;;12004996;29;8914;-52
2021/03/24 14:02:45;;;;;;;;;15.50;13.75;;;;;;;;11987258;29;8915;-54
2021/03/24 14:09:07;;;;;;;;;11.50;10.25;;;;;;;;12009337;29;8887;-53
2021/03/24 14:15:27;;;;;;;;;15.00;12.25;;;;;;;;12007608;29;8962;-53
2021/03/24 14:21:45;;;;;;;;;15.50;13.25;;;;;;;;12027689;29;8863;-55
2021/03/24 14:28:21;;;;;;;;;13.00;13.00;;;;;;;;12007017;29;8864;-54
2021/03/24 14:34:34;;;;;;;;;18.25;14.00;;;;;;;;12037534;29;8869;-55
2021/03/24 14:41:04;;;;;;;;;17.75;17.75;;;;;;;;12052553;29;9719;-55
2021/03/24 14:47:30;;;;;;;;;15.50;15.50;;;;;;;;12053728;29;8857;-55
2021/03/24 14:53:39;;;;;;;;;16.25;16.25;;;;;;;;12052259;29;8865;-54
2021/03/24 14:59:43;;;;;;;;;24.00;20.00;;;;;;;;12053184;29;8879;-55
2021/03/24 15:05:44;;;;;;;;;17.75;15.00;;;;;;;;12055488;29;8865;-53
2021/03/24 15:12:14;;;;;;;;;14.75;13.25;;;;;;;;12060338;29;8869;-57
2021/03/24 15:18:24;;;;;;;;;16.75;13.00;;;;;;;;12040056;29;8876;-54
2021/03/24 15:24:29;;;;;;;;;16.50;15.00;;;;;;;;12014948;29;8932;-55
2021/03/24 15:31:12;;;;;;;;;17.25;14.00;;;;;;;;12037837;29;8873;-52
2021/03/24 15:37:36;;;;;;;;;16.00;13.00;;;;;;;;12058895;29;8869;-53
2021/03/24 15:44:05;;;;;;;;;12.00;12.00;;;;;;;;12060706;29;8915;-53
2021/03/24 15:50:26;;;;;;;;;14.25;14.25;;;;;;;;12058882;29;8853;-52
2021/03/24 15:56:33;;;;;;;;;18.75;13.00;;;;;;;;12059605;29;8911;-54
2021/03/24 16:03:23;;;;;;;;;17.75;15.25;;;;;;;;12058385;29;9021;-51
2021/03/24 16:09:52;;;;;;;;;14.50;14.50;;;;;;;;12057049;29;8869;-55
2021/03/24 16:16:08;;;;;;;;;19.50;16.25;;;;;;;;12057445;29;9757;-54
2021/03/24 16:22:12;;;;;;;;;12.50;12.50;;;;;;;;12014158;29;8887;-54
2021/03/24 16:28:23;;;;;;;;;14.00;14.00;;;;;;;;12012525;29;8856;-53
2021/03/24 16:34:33;;;;;;;;;19.00;19.00;;;;;;;;12013231;29;8872;-52
2021/03/24 16:40:49;;;;;;;;;22.50;20.50;;;;;;;;12011684;29;8879;-58
2021/03/24 16:46:50;;;;;;;;;28.75;24.75;;;;;;;;12011240;29;8906;-55
2021/03/24 16:53:03;;;;;;;;;23.25;21.25;;;;;;;;12012236;29;8883;-55
2021/03/24 16:59:28;;;;;;;;;19.50;18.50;;;;;;;;12011499;29;8871;-52
2021/03/24 17:05:42;;;;;;;;;26.00;21.25;;;;;;;;12016342;29;8888;-52
2021/03/24 17:12:11;;;;;;;;;18.50;18.50;;;;;;;;12010273;29;9692;-55
2021/03/24 17:18:27;;;;;;;;;21.75;19.00;;;;;;;;12011449;29;8872;-53
2021/03/24 17:24:38;;;;;;;;;12.75;12.75;;;;;;;;12009145;29;8898;-54
2021/03/24 17:30:40;;;;;;;;;21.00;16.75;;;;;;;;12010743;29;8978;-51
2021/03/24 17:36:48;;;;;;;;;21.75;15.75;;;;;;;;12009290;29;8880;-55
2021/03/24 17:42:55;;;;;;;;;21.00;18.25;;;;;;;;12008776;29;8982;-53
2021/03/24 17:49:16;;;;;;;;;18.50;18.50;;;;;;;;12010047;29;9724;-53
2021/03/24 17:55:45;;;;;;;;;21.00;18.25;;;;;;;;12008093;29;8880;-55
2021/03/24 18:01:50;;;;;;;;;21.75;21.75;;;;;;;;12009842;29;8872;-52
2021/03/24 18:07:52;;;;;;;;;26.75;23.00;;;;;;;;12007605;29;8888;-55
2021/03/24 18:14:06;;;;;;;;;22.75;19.25;;;;;;;;12009829;29;8894;-54
2021/03/24 18:20:24;;;;;;;;;26.75;23.50;;;;;;;;12007762;29;8898;-53
2021/03/24 18:26:34;;;;;;;;;24.75;22.50;;;;;;;;12008918;29;8884;-51
2021/03/24 18:32:41;;;;;;;;;22.00;22.00;;;;;;;;12034451;29;8873;-57
2021/03/24 18:38:46;;;;;;;;;19.25;18.25;;;;;;;;12051791;29;8857;-52
2021/03/24 18:44:51;;;;;;;;;16.25;15.50;;;;;;;;12052694;29;8888;-53
2021/03/24 18:51:09;;;;;;;;;22.00;20.25;;;;;;;;12051710;29;8923;-53
2021/03/24 18:57:22;;;;;;;;;19.25;19.00;;;;;;;;12053465;29;8858;-54
2021/03/24 19:03:28;;;;;;;;;18.75;18.75;;;;;;;;12050607;29;9674;-51
2021/03/24 19:09:41;;;;;;;;;23.25;19.50;;;;;;;;12052148;29;8857;-51
2021/03/24 19:15:44;;;;;;;;;17.00;17.00;;;;;;;;12051829;29;8967;-53
2021/03/24 19:21:52;;;;;;;;;21.50;17.25;;;;;;;;12051269;29;8877;-53
2021/03/24 19:28:02;;;;;;;;;21.25;19.00;;;;;;;;12052732;29;9713;-52
2021/03/24 19:34:04;;;;;;;;;12.75;12.75;;;;;;;;12050994;29;8845;-53
2021/03/24 19:40:36;;;;;;;;;17.00;17.00;;;;;;;;12053028;29;8873;-52
2021/03/24 19:46:48;;;;;;;;;20.00;19.25;;;;;;;;12050981;29;9311;-54
2021/03/24 19:52:51;;;;;;;;;19.00;15.50;;;;;;;;12056732;29;8920;-55
2021/03/24 19:58:58;;;;;;;;;18.75;16.75;;;;;;;;12058757;29;8869;-51
2021/03/24 20:05:06;;;;;;;;;19.50;19.50;;;;;;;;12057434;29;8885;-51
2021/03/24 20:11:16;;;;;;;;;18.75;18.50;;;;;;;;12060197;29;8877;-53
2021/03/24 20:17:21;;;;;;;;;13.25;13.25;;;;;;;;12057229;29;8892;-54
2021/03/24 20:23:24;;;;;;;;;14.50;14.50;;;;;;;;12059776;29;8893;-50
2021/03/24 20:29:30;;;;;;;;;19.00;19.00;;;;;;;;12056970;29;8865;-52
2021/03/24 20:35:40;;;;;;;;;17.00;17.00;;;;;;;;12013112;29;8872;-55
2021/03/24 20:42:04;;;;;;;;;15.25;15.25;;;;;;;;12012037;29;8986;-53
2021/03/24 20:48:07;;;;;;;;;21.00;17.00;;;;;;;;12037734;29;8857;-54
2021/03/24 20:54:08;;;;;;;;;16.50;16.50;;;;;;;;12057420;29;8885;-54
2021/03/24 21:00:16;;;;;;;;;21.50;20.50;;;;;;;;12055783;29;9073;-53
2021/03/24 21:06:19;;;;;;;;;15.00;10.75;;;;;;;;12056713;29;8984;-53
2021/03/24 21:12:26;;;;;;;;;16.00;12.50;;;;;;;;12055595;29;8877;-50
2021/03/24 21:18:34;;;;;;;;;20.50;17.25;;;;;;;;12027891;29;9001;-51
2021/03/24 21:24:35;;;;;;;;;19.50;18.25;;;;;;;;12010885;29;8860;-50
2021/03/24 21:30:42;;;;;;;;;17.25;16.25;;;;;;;;12017012;29;8861;-55
2021/03/24 21:36:43;;;;;;;;;24.75;19.00;;;;;;;;12055715;29;8892;-51
2021/03/24 21:42:45;;;;;;;;;14.00;14.00;;;;;;;;12054000;29;8869;-51
2021/03/24 21:48:46;;;;;;;;;15.00;15.00;;;;;;;;12053819;29;8877;-53
2021/03/24 21:54:49;;;;;;;;;15.00;15.00;;;;;;;;12055028;29;8909;-54
2021/03/24 22:00:57;;;;;;;;;14.50;14.50;;;;;;;;12007990;29;8860;-55
2021/03/24 22:06:59;;;;;;;;;19.00;19.00;;;;;;;;12009203;29;8959;-51
2021/03/24 22:13:26;;;;;;;;;18.75;18.75;;;;;;;;12041813;29;9775;-49
2021/03/24 22:19:27;;;;;;;;;20.25;18.75;;;;;;;;12053798;29;8853;-49
2021/03/24 22:25:31;;;;;;;;;25.50;23.25;;;;;;;;12053490;29;8987;-51
2021/03/24 22:31:48;;;;;;;;;18.75;17.25;;;;;;;;12051039;29;8912;-49
2021/03/24 22:38:00;;;;;;;;;21.25;21.25;;;;;;;;12053100;29;8879;-51
2021/03/24 22:44:02;;;;;;;;;21.00;21.00;;;;;;;;12051105;29;8889;-51
2021/03/24 22:50:20;;;;;;;;;24.50;22.00;;;;;;;;12053106;29;8877;-53
2021/03/24 22:56:34;;;;;;;;;27.50;26.25;;;;;;;;12052452;29;8948;-49
2021/03/24 23:02:39;;;;;;;;;20.00;19.00;;;;;;;;12052543;29;8884;-53
2021/03/24 23:08:42;;;;;;;;;18.75;17.50;;;;;;;;12052563;29;8944;-53
2021/03/24 23:14:56;;;;;;;;;21.50;21.25;;;;;;;;12051378;29;8865;-50
2021/03/24 23:21:05;;;;;;;;;22.25;21.50;;;;;;;;12052310;29;9730;-52
2021/03/24 23:27:11;;;;;;;;;24.00;21.00;;;;;;;;12056262;29;8877;-52
2021/03/24 23:33:14;;;;;;;;;35.00;30.00;;;;;;;;12061034;29;8868;-52
2021/03/24 23:39:17;;;;;;;;;31.50;30.25;;;;;;;;12060092;29;8976;-49
2021/03/24 23:45:21;;;;;;;;;30.25;24.00;;;;;;;;12059444;29;8873;-51
2021/03/24 23:51:23;;;;;;;;;29.75;26.50;;;;;;;;12060563;29;8888;-52
2021/03/24 23:57:24;;;;;;;;;30.75;25.00;;;;;;;;12057421;29;8992;-53
